sensor_id;sensor_type;location;lat;lon;timestamp;pressure;altitude;pressure_sealevel;temperature;humidity
550;BME280;20066;48.764;9.176;2023-02-15T00:00:08;99533.81;;;5.61;60.86
550;BME280;20066;48.764;9.176;2023-02-15T00:02:37;99529.25;;;5.01;62.88
550;BME280;20066;48.764;9.176;2023-02-15T00:05:08;99524.41;;;5.12;62.35
550;BME280;20066;48.764;9.176;2023-02-15T00:07:37;99519.69;;;5.52;61.79
550;BME280;20066;48.764;9.176;2023-02-15T00:10:06;99517.66;;;5.40;60.58
550;BME280;20066;48.764;9.176;2023-02-15T00:12:33;99511.69;;;5.43;60.88
550;BME280;20066;48.764;9.176;2023-02-15T00:15:01;99510.53;;;5.70;60.19
550;BME280;20066;48.764;9.176;2023-02-15T00:17:29;99508.22;;;5.69;60.39
550;BME280;20066;48.764;9.176;2023-02-15T00:19:59;99506.47;;;5.64;60.88
550;BME280;20066;48.764;9.176;2023-02-15T00:22:30;99501.44;;;5.71;60.14
550;BME280;20066;48.764;9.176;2023-02-15T00:24:57;99503.66;;;5.61;60.20
550;BME280;20066;48.764;9.176;2023-02-15T00:27:25;99501.81;;;5.35;60.92
550;BME280;20066;48.764;9.176;2023-02-15T00:29:53;99506.97;;;5.49;60.58
550;BME280;20066;48.764;9.176;2023-02-15T00:32:22;99509.03;;;5.26;60.65
550;BME280;20066;48.764;9.176;2023-02-15T00:34:50;99507.00;;;5.32;60.73
550;BME280;20066;48.764;9.176;2023-02-15T00:37:19;99501.03;;;5.18;62.30
550;BME280;20066;48.764;9.176;2023-02-15T00:39:48;99502.59;;;5.44;60.42
550;BME280;20066;48.764;9.176;2023-02-15T00:42:17;99495.53;;;5.31;60.75
550;BME280;20066;48.764;9.176;2023-02-15T00:44:45;99495.19;;;5.50;60.73
550;BME280;20066;48.764;9.176;2023-02-15T00:47:13;99497.06;;;5.58;60.33
550;BME280;20066;48.764;9.176;2023-02-15T00:49:40;99491.03;;;5.23;60.90
550;BME280;20066;48.764;9.176;2023-02-15T00:52:08;99499.94;;;4.67;64.27
550;BME280;20066;48.764;9.176;2023-02-15T00:54:37;99495.88;;;5.21;62.17
550;BME280;20066;48.764;9.176;2023-02-15T00:57:06;99499.63;;;5.29;60.60
550;BME280;20066;48.764;9.176;2023-02-15T00:59:34;99500.06;;;5.39;60.51
550;BME280;20066;48.764;9.176;2023-02-15T01:02:02;99492.13;;;5.22;61.87
550;BME280;20066;48.764;9.176;2023-02-15T01:04:30;99495.22;;;5.41;60.33
550;BME280;20066;48.764;9.176;2023-02-15T01:06:58;99494.13;;;5.42;60.03
550;BME280;20066;48.764;9.176;2023-02-15T01:09:26;99496.97;;;5.37;60.96
550;BME280;20066;48.764;9.176;2023-02-15T01:11:53;99489.56;;;5.34;61.27
550;BME280;20066;48.764;9.176;2023-02-15T01:14:23;99490.03;;;5.45;60.15
550;BME280;20066;48.764;9.176;2023-02-15T01:16:51;99493.50;;;5.45;59.89
550;BME280;20066;48.764;9.176;2023-02-15T01:19:18;99491.47;;;5.17;61.07
550;BME280;20066;48.764;9.176;2023-02-15T01:21:46;99484.09;;;5.31;60.73
550;BME280;20066;48.764;9.176;2023-02-15T01:24:15;99492.72;;;5.28;60.37
550;BME280;20066;48.764;9.176;2023-02-15T01:26:42;99494.78;;;5.22;60.57
550;BME280;20066;48.764;9.176;2023-02-15T01:29:10;99495.53;;;4.80;61.92
550;BME280;20066;48.764;9.176;2023-02-15T01:31:39;99495.06;;;3.81;64.37
550;BME280;20066;48.764;9.176;2023-02-15T01:34:07;99497.44;;;4.31;64.02
550;BME280;20066;48.764;9.176;2023-02-15T01:36:35;99493.19;;;4.61;62.84
550;BME280;20066;48.764;9.176;2023-02-15T01:39:03;99496.03;;;4.82;62.36
550;BME280;20066;48.764;9.176;2023-02-15T01:41:31;99494.59;;;5.01;61.37
550;BME280;20066;48.764;9.176;2023-02-15T01:44:01;99488.31;;;4.63;62.43
550;BME280;20066;48.764;9.176;2023-02-15T01:46:33;99490.53;;;4.95;62.07
550;BME280;20066;48.764;9.176;2023-02-15T01:49:08;99479.41;;;5.02;61.75
550;BME280;20066;48.764;9.176;2023-02-15T01:51:39;99482.06;;;5.11;60.93
550;BME280;20066;48.764;9.176;2023-02-15T01:54:15;99476.56;;;5.24;60.49
550;BME280;20066;48.764;9.176;2023-02-15T01:56:46;99479.84;;;4.52;62.21
550;BME280;20066;48.764;9.176;2023-02-15T01:59:19;99477.16;;;4.44;62.73
550;BME280;20066;48.764;9.176;2023-02-15T02:01:51;99473.03;;;4.29;63.48
550;BME280;20066;48.764;9.176;2023-02-15T02:04:25;99479.97;;;4.47;63.08
550;BME280;20066;48.764;9.176;2023-02-15T02:06:56;99475.16;;;4.58;62.19
550;BME280;20066;48.764;9.176;2023-02-15T02:09:25;99483.75;;;4.55;63.74
550;BME280;20066;48.764;9.176;2023-02-15T02:11:53;99466.22;;;4.71;61.90
550;BME280;20066;48.764;9.176;2023-02-15T02:14:22;99469.81;;;4.49;62.66
550;BME280;20066;48.764;9.176;2023-02-15T02:16:54;99468.13;;;4.14;63.50
550;BME280;20066;48.764;9.176;2023-02-15T02:19:45;99464.66;;;4.61;63.31
550;BME280;20066;48.764;9.176;2023-02-15T02:25:58;99471.31;;;4.33;62.34
550;BME280;20066;48.764;9.176;2023-02-15T02:32:02;99461.22;;;4.61;62.94
550;BME280;20066;48.764;9.176;2023-02-15T02:34:42;99459.00;;;4.63;61.89
550;BME280;20066;48.764;9.176;2023-02-15T02:37:19;99461.06;;;4.83;60.97
550;BME280;20066;48.764;9.176;2023-02-15T02:39:55;99457.06;;;4.29;63.28
550;BME280;20066;48.764;9.176;2023-02-15T02:42:32;99456.03;;;4.56;62.25
550;BME280;20066;48.764;9.176;2023-02-15T02:45:05;99458.16;;;4.37;63.32
550;BME280;20066;48.764;9.176;2023-02-15T02:47:38;99452.69;;;3.54;68.00
550;BME280;20066;48.764;9.176;2023-02-15T02:50:11;99464.69;;;4.13;65.27
550;BME280;20066;48.764;9.176;2023-02-15T02:52:41;99459.19;;;4.10;64.89
550;BME280;20066;48.764;9.176;2023-02-15T02:55:13;99467.03;;;4.23;64.15
550;BME280;20066;48.764;9.176;2023-02-15T02:57:47;99461.81;;;4.49;63.05
550;BME280;20066;48.764;9.176;2023-02-15T03:00:20;99458.63;;;4.30;64.06
550;BME280;20066;48.764;9.176;2023-02-15T03:02:51;99456.50;;;4.66;62.67
550;BME280;20066;48.764;9.176;2023-02-15T03:05:26;99455.69;;;4.40;63.65
550;BME280;20066;48.764;9.176;2023-02-15T03:07:55;99454.38;;;3.81;66.40
550;BME280;20066;48.764;9.176;2023-02-15T03:10:24;99448.00;;;3.90;66.15
550;BME280;20066;48.764;9.176;2023-02-15T03:12:52;99446.53;;;4.24;64.28
550;BME280;20066;48.764;9.176;2023-02-15T03:15:24;99441.38;;;4.27;63.40
550;BME280;20066;48.764;9.176;2023-02-15T03:17:55;99444.91;;;4.54;62.88
550;BME280;20066;48.764;9.176;2023-02-15T03:20:28;99449.91;;;4.47;62.54
550;BME280;20066;48.764;9.176;2023-02-15T03:22:59;99450.44;;;4.18;62.03
550;BME280;20066;48.764;9.176;2023-02-15T03:25:32;99445.94;;;4.36;62.47
550;BME280;20066;48.764;9.176;2023-02-15T03:28:04;99444.81;;;4.19;63.09
550;BME280;20066;48.764;9.176;2023-02-15T03:30:34;99436.84;;;4.28;62.49
550;BME280;20066;48.764;9.176;2023-02-15T03:33:05;99441.69;;;3.78;64.86
550;BME280;20066;48.764;9.176;2023-02-15T03:35:42;99434.00;;;4.24;63.00
550;BME280;20066;48.764;9.176;2023-02-15T03:38:12;99436.69;;;3.76;63.81
550;BME280;20066;48.764;9.176;2023-02-15T03:40:46;99446.78;;;3.97;63.54
550;BME280;20066;48.764;9.176;2023-02-15T03:43:39;99446.53;;;4.24;63.42
550;BME280;20066;48.764;9.176;2023-02-15T03:46:14;99452.56;;;4.38;63.21
550;BME280;20066;48.764;9.176;2023-02-15T03:48:45;99449.09;;;4.46;61.74
550;BME280;20066;48.764;9.176;2023-02-15T03:51:17;99446.78;;;4.53;60.89
550;BME280;20066;48.764;9.176;2023-02-15T03:54:04;99448.47;;;3.92;62.18
550;BME280;20066;48.764;9.176;2023-02-15T03:56:34;99444.63;;;3.37;65.36
550;BME280;20066;48.764;9.176;2023-02-15T03:59:04;99451.88;;;3.84;63.78
550;BME280;20066;48.764;9.176;2023-02-15T04:01:58;99449.75;;;3.95;63.13
550;BME280;20066;48.764;9.176;2023-02-15T04:04:32;99447.34;;;3.76;64.28
550;BME280;20066;48.764;9.176;2023-02-15T04:07:02;99451.06;;;4.15;63.14
550;BME280;20066;48.764;9.176;2023-02-15T04:09:30;99451.44;;;3.51;64.41
550;BME280;20066;48.764;9.176;2023-02-15T04:12:16;99453.09;;;3.78;64.33
550;BME280;20066;48.764;9.176;2023-02-15T04:14:44;99454.25;;;3.55;64.41
550;BME280;20066;48.764;9.176;2023-02-15T04:17:29;99442.91;;;4.11;62.77
550;BME280;20066;48.764;9.176;2023-02-15T04:19:57;99447.31;;;4.24;62.19
550;BME280;20066;48.764;9.176;2023-02-15T04:22:44;99442.91;;;4.11;62.73
550;BME280;20066;48.764;9.176;2023-02-15T04:25:29;99439.97;;;4.21;62.72
550;BME280;20066;48.764;9.176;2023-02-15T04:27:57;99439.00;;;4.17;61.93
550;BME280;20066;48.764;9.176;2023-02-15T04:30:25;99448.41;;;4.15;62.10
550;BME280;20066;48.764;9.176;2023-02-15T04:32:53;99442.63;;;4.21;61.48
550;BME280;20066;48.764;9.176;2023-02-15T04:35:21;99444.66;;;3.76;63.11
550;BME280;20066;48.764;9.176;2023-02-15T04:37:51;99438.13;;;3.21;65.20
550;BME280;20066;48.764;9.176;2023-02-15T04:40:19;99445.09;;;3.17;67.13
550;BME280;20066;48.764;9.176;2023-02-15T04:42:47;99438.97;;;3.69;64.54
550;BME280;20066;48.764;9.176;2023-02-15T04:45:16;99433.81;;;4.04;63.32
550;BME280;20066;48.764;9.176;2023-02-15T04:47:44;99434.84;;;3.94;63.56
550;BME280;20066;48.764;9.176;2023-02-15T04:50:11;99430.28;;;3.86;64.12
550;BME280;20066;48.764;9.176;2023-02-15T04:52:39;99413.91;;;4.01;62.37
550;BME280;20066;48.764;9.176;2023-02-15T04:55:08;99406.56;;;4.15;62.07
550;BME280;20066;48.764;9.176;2023-02-15T04:57:36;99401.59;;;4.22;61.76
550;BME280;20066;48.764;9.176;2023-02-15T05:00:05;99401.41;;;3.62;63.64
550;BME280;20066;48.764;9.176;2023-02-15T05:02:34;99403.53;;;3.82;62.61
550;BME280;20066;48.764;9.176;2023-02-15T05:05:03;99412.44;;;3.86;62.87
550;BME280;20066;48.764;9.176;2023-02-15T05:07:30;99414.34;;;3.95;63.13
550;BME280;20066;48.764;9.176;2023-02-15T05:09:58;99416.06;;;3.51;63.71
550;BME280;20066;48.764;9.176;2023-02-15T05:12:27;99425.44;;;3.88;62.19
550;BME280;20066;48.764;9.176;2023-02-15T05:14:55;99417.41;;;3.71;62.49
550;BME280;20066;48.764;9.176;2023-02-15T05:17:22;99426.22;;;3.80;62.76
550;BME280;20066;48.764;9.176;2023-02-15T05:19:50;99434.03;;;3.76;63.09
550;BME280;20066;48.764;9.176;2023-02-15T05:22:18;99427.59;;;3.69;63.56
550;BME280;20066;48.764;9.176;2023-02-15T05:24:45;99431.16;;;3.33;63.72
550;BME280;20066;48.764;9.176;2023-02-15T05:27:32;99420.41;;;2.71;67.22
550;BME280;20066;48.764;9.176;2023-02-15T05:30:18;99418.91;;;2.43;69.95
550;BME280;20066;48.764;9.176;2023-02-15T05:32:45;99422.28;;;3.15;66.46
550;BME280;20066;48.764;9.176;2023-02-15T05:35:14;99423.31;;;2.48;68.47
550;BME280;20066;48.764;9.176;2023-02-15T05:37:42;99420.19;;;3.04;65.73
550;BME280;20066;48.764;9.176;2023-02-15T05:40:10;99431.72;;;3.22;65.86
550;BME280;20066;48.764;9.176;2023-02-15T05:42:39;99431.25;;;3.50;65.13
550;BME280;20066;48.764;9.176;2023-02-15T05:45:07;99431.16;;;3.64;64.78
550;BME280;20066;48.764;9.176;2023-02-15T05:47:35;99432.63;;;3.79;63.46
550;BME280;20066;48.764;9.176;2023-02-15T05:50:04;99432.06;;;3.60;64.14
550;BME280;20066;48.764;9.176;2023-02-15T05:52:33;99427.41;;;3.34;64.96
550;BME280;20066;48.764;9.176;2023-02-15T05:55:00;99422.47;;;3.50;64.81
550;BME280;20066;48.764;9.176;2023-02-15T05:57:29;99416.38;;;3.19;66.31
550;BME280;20066;48.764;9.176;2023-02-15T05:59:58;99422.00;;;2.95;66.95
550;BME280;20066;48.764;9.176;2023-02-15T06:02:25;99423.00;;;3.30;66.11
550;BME280;20066;48.764;9.176;2023-02-15T06:04:53;99426.56;;;3.25;66.41
550;BME280;20066;48.764;9.176;2023-02-15T06:07:21;99423.69;;;3.13;67.33
550;BME280;20066;48.764;9.176;2023-02-15T06:09:49;99430.91;;;3.43;64.56
550;BME280;20066;48.764;9.176;2023-02-15T06:12:16;99431.09;;;3.25;64.97
550;BME280;20066;48.764;9.176;2023-02-15T06:14:44;99429.75;;;3.36;63.67
550;BME280;20066;48.764;9.176;2023-02-15T06:17:13;99429.47;;;3.77;62.76
550;BME280;20066;48.764;9.176;2023-02-15T06:19:42;99428.41;;;3.47;63.24
550;BME280;20066;48.764;9.176;2023-02-15T06:22:10;99437.31;;;2.75;65.77
550;BME280;20066;48.764;9.176;2023-02-15T06:24:40;99434.69;;;3.51;64.53
550;BME280;20066;48.764;9.176;2023-02-15T06:27:09;99438.81;;;3.66;62.70
550;BME280;20066;48.764;9.176;2023-02-15T06:29:37;99434.78;;;3.68;63.71
550;BME280;20066;48.764;9.176;2023-02-15T06:32:05;99436.63;;;2.70;66.07
550;BME280;20066;48.764;9.176;2023-02-15T06:34:34;99437.81;;;2.14;68.08
550;BME280;20066;48.764;9.176;2023-02-15T06:37:02;99441.66;;;2.35;67.94
550;BME280;20066;48.764;9.176;2023-02-15T06:39:29;99443.59;;;2.44;67.03
550;BME280;20066;48.764;9.176;2023-02-15T06:41:57;99450.84;;;2.52;67.65
550;BME280;20066;48.764;9.176;2023-02-15T06:44:25;99450.47;;;2.31;68.03
550;BME280;20066;48.764;9.176;2023-02-15T06:46:52;99452.84;;;2.32;68.89
550;BME280;20066;48.764;9.176;2023-02-15T06:49:20;99450.91;;;2.74;67.90
550;BME280;20066;48.764;9.176;2023-02-15T06:51:49;99461.06;;;2.58;68.76
550;BME280;20066;48.764;9.176;2023-02-15T06:54:17;99449.53;;;2.99;66.89
550;BME280;20066;48.764;9.176;2023-02-15T06:56:45;99452.72;;;3.09;66.21
550;BME280;20066;48.764;9.176;2023-02-15T06:59:13;99456.16;;;3.10;65.80
550;BME280;20066;48.764;9.176;2023-02-15T07:01:41;99448.50;;;3.08;64.56
550;BME280;20066;48.764;9.176;2023-02-15T07:04:09;99453.63;;;3.05;64.95
550;BME280;20066;48.764;9.176;2023-02-15T07:06:37;99450.09;;;2.73;66.97
550;BME280;20066;48.764;9.176;2023-02-15T07:09:06;99461.09;;;2.45;66.67
550;BME280;20066;48.764;9.176;2023-02-15T07:11:34;99454.84;;;2.13;68.53
550;BME280;20066;48.764;9.176;2023-02-15T07:14:19;99459.13;;;3.08;66.62
550;BME280;20066;48.764;9.176;2023-02-15T07:16:47;99463.16;;;2.34;68.57
550;BME280;20066;48.764;9.176;2023-02-15T07:19:16;99467.41;;;1.94;68.84
550;BME280;20066;48.764;9.176;2023-02-15T07:21:43;99464.66;;;2.13;70.20
550;BME280;20066;48.764;9.176;2023-02-15T07:24:13;99470.50;;;2.64;68.05
550;BME280;20066;48.764;9.176;2023-02-15T07:26:41;99477.00;;;2.58;66.72
550;BME280;20066;48.764;9.176;2023-02-15T07:29:09;99473.41;;;2.76;66.75
550;BME280;20066;48.764;9.176;2023-02-15T07:31:37;99470.97;;;2.66;68.27
550;BME280;20066;48.764;9.176;2023-02-15T07:34:05;99476.72;;;2.60;66.26
550;BME280;20066;48.764;9.176;2023-02-15T07:36:33;99473.66;;;2.53;66.18
550;BME280;20066;48.764;9.176;2023-02-15T07:39:01;99474.22;;;2.63;67.51
550;BME280;20066;48.764;9.176;2023-02-15T07:41:30;99472.75;;;1.62;72.28
550;BME280;20066;48.764;9.176;2023-02-15T07:43:58;99461.72;;;2.28;68.79
550;BME280;20066;48.764;9.176;2023-02-15T07:46:25;99458.28;;;1.40;71.05
550;BME280;20066;48.764;9.176;2023-02-15T07:48:54;99460.63;;;2.15;71.78
550;BME280;20066;48.764;9.176;2023-02-15T07:51:22;99452.56;;;2.20;68.73
550;BME280;20066;48.764;9.176;2023-02-15T07:53:49;99443.44;;;2.13;69.61
550;BME280;20066;48.764;9.176;2023-02-15T07:56:18;99450.41;;;2.09;71.89
550;BME280;20066;48.764;9.176;2023-02-15T07:58:47;99451.06;;;2.78;67.87
550;BME280;20066;48.764;9.176;2023-02-15T08:01:24;99449.16;;;2.92;66.16
550;BME280;20066;48.764;9.176;2023-02-15T08:03:52;99452.28;;;2.71;67.71
550;BME280;20066;48.764;9.176;2023-02-15T08:06:21;99457.28;;;2.10;69.39
550;BME280;20066;48.764;9.176;2023-02-15T08:08:49;99462.06;;;2.49;68.65
550;BME280;20066;48.764;9.176;2023-02-15T08:11:18;99469.94;;;2.90;66.58
550;BME280;20066;48.764;9.176;2023-02-15T08:13:55;99470.22;;;2.38;68.35
550;BME280;20066;48.764;9.176;2023-02-15T08:16:28;99464.38;;;3.00;68.05
550;BME280;20066;48.764;9.176;2023-02-15T08:18:57;99476.97;;;3.61;65.70
550;BME280;20066;48.764;9.176;2023-02-15T08:21:26;99467.81;;;3.45;65.46
550;BME280;20066;48.764;9.176;2023-02-15T08:23:55;99470.09;;;3.15;64.64
550;BME280;20066;48.764;9.176;2023-02-15T08:26:23;99477.00;;;3.17;66.04
550;BME280;20066;48.764;9.176;2023-02-15T08:28:51;99458.75;;;2.16;69.26
550;BME280;20066;48.764;9.176;2023-02-15T08:31:20;99457.38;;;2.32;72.40
550;BME280;20066;48.764;9.176;2023-02-15T08:33:50;99457.16;;;2.78;69.67
550;BME280;20066;48.764;9.176;2023-02-15T08:36:20;99462.28;;;5.29;64.29
550;BME280;20066;48.764;9.176;2023-02-15T08:38:48;99466.03;;;7.33;53.98
550;BME280;20066;48.764;9.176;2023-02-15T08:41:18;99468.31;;;8.25;53.57
550;BME280;20066;48.764;9.176;2023-02-15T08:43:47;99457.91;;;11.08;45.68
550;BME280;20066;48.764;9.176;2023-02-15T08:46:18;99465.94;;;12.37;41.20
550;BME280;20066;48.764;9.176;2023-02-15T08:48:47;99461.41;;;8.88;50.82
550;BME280;20066;48.764;9.176;2023-02-15T08:51:17;99474.47;;;11.29;44.26
550;BME280;20066;48.764;9.176;2023-02-15T08:53:46;99467.13;;;11.91;42.57
550;BME280;20066;48.764;9.176;2023-02-15T08:56:16;99459.09;;;10.91;41.67
550;BME280;20066;48.764;9.176;2023-02-15T08:58:44;99464.84;;;8.12;48.66
550;BME280;20066;48.764;9.176;2023-02-15T09:01:14;99451.53;;;6.60;53.60
550;BME280;20066;48.764;9.176;2023-02-15T09:03:49;99448.75;;;9.45;49.68
550;BME280;20066;48.764;9.176;2023-02-15T09:06:20;99449.28;;;4.02;61.23
550;BME280;20066;48.764;9.176;2023-02-15T09:08:48;99445.53;;;5.11;58.12
550;BME280;20066;48.764;9.176;2023-02-15T09:11:18;99447.63;;;7.77;54.39
550;BME280;20066;48.764;9.176;2023-02-15T09:13:52;99439.28;;;9.35;45.84
550;BME280;20066;48.764;9.176;2023-02-15T09:16:22;99440.78;;;12.56;42.21
550;BME280;20066;48.764;9.176;2023-02-15T09:18:52;99442.50;;;13.75;38.55
550;BME280;20066;48.764;9.176;2023-02-15T09:21:22;99439.91;;;11.54;43.13
550;BME280;20066;48.764;9.176;2023-02-15T09:23:51;99438.16;;;11.84;42.69
550;BME280;20066;48.764;9.176;2023-02-15T09:26:21;99447.28;;;11.15;42.42
550;BME280;20066;48.764;9.176;2023-02-15T09:28:52;99437.88;;;6.82;52.46
550;BME280;20066;48.764;9.176;2023-02-15T09:31:23;99442.22;;;6.87;56.93
550;BME280;20066;48.764;9.176;2023-02-15T09:33:53;99430.34;;;10.57;44.81
550;BME280;20066;48.764;9.176;2023-02-15T09:36:23;99430.88;;;9.21;48.47
550;BME280;20066;48.764;9.176;2023-02-15T09:38:54;99435.47;;;8.04;51.90
550;BME280;20066;48.764;9.176;2023-02-15T09:44:26;99426.91;;;6.54;57.00
550;BME280;20066;48.764;9.176;2023-02-15T09:47:09;99419.41;;;8.80;49.30
550;BME280;20066;48.764;9.176;2023-02-15T09:49:46;99416.66;;;7.31;52.96
550;BME280;20066;48.764;9.176;2023-02-15T09:52:26;99410.50;;;9.48;48.54
550;BME280;20066;48.764;9.176;2023-02-15T09:55:24;99411.41;;;11.53;43.16
550;BME280;20066;48.764;9.176;2023-02-15T09:58:04;99414.13;;;12.25;40.89
550;BME280;20066;48.764;9.176;2023-02-15T10:00:42;99412.81;;;9.06;47.85
550;BME280;20066;48.764;9.176;2023-02-15T10:03:23;99409.81;;;11.29;43.75
550;BME280;20066;48.764;9.176;2023-02-15T10:06:10;99412.88;;;12.19;40.33
550;BME280;20066;48.764;9.176;2023-02-15T10:08:54;99412.41;;;11.64;42.01
550;BME280;20066;48.764;9.176;2023-02-15T10:11:36;99411.69;;;11.25;44.78
550;BME280;20066;48.764;9.176;2023-02-15T10:14:15;99408.47;;;8.33;49.33
550;BME280;20066;48.764;9.176;2023-02-15T10:16:56;99400.88;;;9.78;48.86
550;BME280;20066;48.764;9.176;2023-02-15T10:19:48;99396.59;;;11.43;43.69
550;BME280;20066;48.764;9.176;2023-02-15T10:22:29;99404.38;;;10.14;46.02
550;BME280;20066;48.764;9.176;2023-02-15T10:25:18;99398.81;;;12.06;41.64
550;BME280;20066;48.764;9.176;2023-02-15T10:27:49;99410.16;;;12.45;42.08
550;BME280;20066;48.764;9.176;2023-02-15T10:30:23;99398.66;;;12.22;40.57
550;BME280;20066;48.764;9.176;2023-02-15T10:33:00;99396.28;;;11.03;43.73
550;BME280;20066;48.764;9.176;2023-02-15T10:35:36;99387.25;;;12.06;43.36
550;BME280;20066;48.764;9.176;2023-02-15T10:38:21;99390.97;;;13.58;40.22
550;BME280;20066;48.764;9.176;2023-02-15T10:41:01;99383.03;;;10.75;43.63
550;BME280;20066;48.764;9.176;2023-02-15T10:43:45;99384.16;;;10.55;44.85
550;BME280;20066;48.764;9.176;2023-02-15T10:46:30;99381.03;;;12.02;41.87
550;BME280;20066;48.764;9.176;2023-02-15T10:49:16;99374.22;;;11.16;44.90
550;BME280;20066;48.764;9.176;2023-02-15T10:51:56;99370.63;;;11.09;44.32
550;BME280;20066;48.764;9.176;2023-02-15T10:54:33;99365.88;;;10.25;46.00
550;BME280;20066;48.764;9.176;2023-02-15T10:57:09;99362.84;;;9.45;49.03
550;BME280;20066;48.764;9.176;2023-02-15T10:59:51;99356.06;;;12.98;41.56
550;BME280;20066;48.764;9.176;2023-02-15T11:02:30;99367.69;;;12.72;41.36
550;BME280;20066;48.764;9.176;2023-02-15T11:05:16;99355.97;;;13.28;40.42
550;BME280;20066;48.764;9.176;2023-02-15T11:07:48;99362.41;;;16.43;34.23
550;BME280;20066;48.764;9.176;2023-02-15T11:10:29;99349.16;;;14.68;36.31
550;BME280;20066;48.764;9.176;2023-02-15T11:13:02;99351.63;;;17.02;33.21
550;BME280;20066;48.764;9.176;2023-02-15T11:15:34;99347.13;;;12.94;39.38
550;BME280;20066;48.764;9.176;2023-02-15T11:18:11;99343.31;;;13.39;39.12
550;BME280;20066;48.764;9.176;2023-02-15T11:20:44;99348.50;;;16.02;34.32
550;BME280;20066;48.764;9.176;2023-02-15T11:23:15;99343.09;;;15.85;35.32
550;BME280;20066;48.764;9.176;2023-02-15T11:25:52;99346.56;;;16.21;33.64
550;BME280;20066;48.764;9.176;2023-02-15T11:28:24;99338.63;;;14.42;36.32
550;BME280;20066;48.764;9.176;2023-02-15T11:30:56;99348.63;;;14.34;36.76
550;BME280;20066;48.764;9.176;2023-02-15T11:33:29;99343.16;;;18.34;31.11
550;BME280;20066;48.764;9.176;2023-02-15T11:36:00;99333.66;;;13.93;37.76
550;BME280;20066;48.764;9.176;2023-02-15T11:38:32;99342.66;;;11.63;42.84
550;BME280;20066;48.764;9.176;2023-02-15T11:41:03;99331.13;;;15.61;35.02
550;BME280;20066;48.764;9.176;2023-02-15T11:43:36;99329.63;;;13.18;39.12
550;BME280;20066;48.764;9.176;2023-02-15T11:46:07;99326.16;;;13.68;39.08
550;BME280;20066;48.764;9.176;2023-02-15T11:48:38;99326.63;;;14.43;37.58
550;BME280;20066;48.764;9.176;2023-02-15T11:51:10;99326.34;;;12.64;40.95
550;BME280;20066;48.764;9.176;2023-02-15T11:53:40;99324.47;;;9.44;49.10
550;BME280;20066;48.764;9.176;2023-02-15T11:56:14;99323.91;;;10.78;45.48
550;BME280;20066;48.764;9.176;2023-02-15T11:58:45;99333.84;;;10.01;47.42
550;BME280;20066;48.764;9.176;2023-02-15T12:01:18;99325.91;;;9.73;48.82
550;BME280;20066;48.764;9.176;2023-02-15T12:03:49;99325.75;;;9.35;49.82
550;BME280;20066;48.764;9.176;2023-02-15T12:06:22;99325.06;;;8.50;52.36
550;BME280;20066;48.764;9.176;2023-02-15T12:09:00;99323.81;;;8.60;52.63
550;BME280;20066;48.764;9.176;2023-02-15T12:11:34;99320.28;;;9.00;52.53
550;BME280;20066;48.764;9.176;2023-02-15T12:14:04;99320.97;;;9.75;49.72
550;BME280;20066;48.764;9.176;2023-02-15T12:16:40;99318.06;;;8.74;51.89
550;BME280;20066;48.764;9.176;2023-02-15T12:19:30;99308.63;;;8.80;52.27
550;BME280;20066;48.764;9.176;2023-02-15T12:22:01;99303.56;;;9.69;50.15
550;BME280;20066;48.764;9.176;2023-02-15T12:24:31;99296.78;;;8.81;53.18
550;BME280;20066;48.764;9.176;2023-02-15T12:27:03;99304.34;;;9.54;50.60
550;BME280;20066;48.764;9.176;2023-02-15T12:29:35;99290.78;;;9.00;52.13
550;BME280;20066;48.764;9.176;2023-02-15T12:32:10;99301.41;;;8.96;52.31
550;BME280;20066;48.764;9.176;2023-02-15T12:34:39;99300.09;;;9.68;50.65
550;BME280;20066;48.764;9.176;2023-02-15T12:37:15;99294.56;;;9.61;50.57
550;BME280;20066;48.764;9.176;2023-02-15T12:39:55;99298.66;;;9.08;52.26
550;BME280;20066;48.764;9.176;2023-02-15T12:42:25;99293.63;;;9.54;51.34
550;BME280;20066;48.764;9.176;2023-02-15T12:44:58;99287.41;;;9.85;49.98
550;BME280;20066;48.764;9.176;2023-02-15T12:47:27;99290.34;;;9.29;52.13
550;BME280;20066;48.764;9.176;2023-02-15T12:50:13;99282.97;;;9.42;52.64
550;BME280;20066;48.764;9.176;2023-02-15T12:52:45;99278.13;;;9.82;51.87
550;BME280;20066;48.764;9.176;2023-02-15T12:55:31;99272.63;;;10.49;50.08
550;BME280;20066;48.764;9.176;2023-02-15T12:58:08;99274.28;;;9.64;51.18
550;BME280;20066;48.764;9.176;2023-02-15T13:00:36;99270.81;;;9.98;50.63
550;BME280;20066;48.764;9.176;2023-02-15T13:03:04;99263.03;;;9.43;53.12
550;BME280;20066;48.764;9.176;2023-02-15T13:05:35;99258.97;;;10.38;51.01
550;BME280;20066;48.764;9.176;2023-02-15T13:08:09;99258.91;;;10.99;49.09
550;BME280;20066;48.764;9.176;2023-02-15T13:10:41;99255.84;;;10.78;49.35
550;BME280;20066;48.764;9.176;2023-02-15T13:13:18;99252.63;;;11.14;48.73
550;BME280;20066;48.764;9.176;2023-02-15T13:15:50;99246.41;;;10.65;49.50
550;BME280;20066;48.764;9.176;2023-02-15T13:18:25;99238.47;;;10.53;50.24
550;BME280;20066;48.764;9.176;2023-02-15T13:20:56;99230.72;;;10.28;49.46
550;BME280;20066;48.764;9.176;2023-02-15T13:23:26;99226.75;;;10.03;51.00
550;BME280;20066;48.764;9.176;2023-02-15T13:25:56;99233.19;;;10.37;50.43
550;BME280;20066;48.764;9.176;2023-02-15T13:28:34;99227.31;;;9.93;51.64
550;BME280;20066;48.764;9.176;2023-02-15T13:31:12;99232.19;;;10.45;50.72
550;BME280;20066;48.764;9.176;2023-02-15T13:33:44;99230.50;;;10.18;51.34
550;BME280;20066;48.764;9.176;2023-02-15T13:36:17;99229.84;;;10.86;50.16
550;BME280;20066;48.764;9.176;2023-02-15T13:38:53;99222.47;;;10.82;50.34
550;BME280;20066;48.764;9.176;2023-02-15T13:41:27;99225.28;;;11.12;49.46
550;BME280;20066;48.764;9.176;2023-02-15T13:44:12;99217.50;;;10.39;51.66
550;BME280;20066;48.764;9.176;2023-02-15T13:46:50;99219.63;;;10.30;51.77
550;BME280;20066;48.764;9.176;2023-02-15T13:49:33;99210.16;;;10.59;51.57
550;BME280;20066;48.764;9.176;2023-02-15T13:52:17;99208.19;;;10.78;50.69
550;BME280;20066;48.764;9.176;2023-02-15T13:54:57;99216.00;;;11.36;49.69
550;BME280;20066;48.764;9.176;2023-02-15T13:57:46;99206.56;;;12.06;47.60
550;BME280;20066;48.764;9.176;2023-02-15T14:00:25;99210.09;;;12.43;46.55
550;BME280;20066;48.764;9.176;2023-02-15T14:03:06;99203.75;;;12.28;47.19
550;BME280;20066;48.764;9.176;2023-02-15T14:05:49;99206.88;;;10.92;50.73